createdAt,value
2022-09-14T00:08:39.497Z,67
2022-09-14T00:23:56.419Z,73.5
2022-09-14T00:39:12.428Z,74.5
2022-09-14T00:54:28.398Z,76
2022-09-14T01:09:44.364Z,77
2022-09-14T01:25:01.312Z,79.5
2022-09-14T01:40:18.364Z,79
2022-09-14T01:55:35.253Z,79
2022-09-14T02:10:51.236Z,79.5
2022-09-14T02:26:08.176Z,83.5
2022-09-14T02:41:24.166Z,84
2022-09-14T02:56:40.108Z,85
2022-09-14T03:11:57.122Z,87.5
2022-09-14T03:27:15.084Z,86.5
2022-09-14T03:42:32.051Z,82.5
2022-09-14T03:57:47.992Z,86
2022-09-14T04:13:03.988Z,91
2022-09-14T04:28:21.070Z,91
2022-09-14T04:43:36.920Z,95.5
2022-09-14T04:58:52.861Z,100
2022-09-14T05:14:09.866Z,100
2022-09-14T05:29:27.832Z,100
2022-09-14T05:44:44.811Z,100
2022-09-14T06:00:00.774Z,100
2022-09-14T06:15:16.703Z,100
2022-09-14T06:30:33.700Z,100
2022-09-14T06:45:49.639Z,100
2022-09-14T07:01:05.708Z,100
2022-09-14T07:16:22.587Z,100
2022-09-14T07:31:40.595Z,100
2022-09-14T07:46:57.529Z,100
2022-09-14T08:02:13.651Z,100
2022-09-14T08:17:29.455Z,100
2022-09-14T08:32:46.429Z,100
2022-09-14T08:48:02.405Z,100
2022-09-14T09:03:19.376Z,100
2022-09-14T09:18:36.339Z,100
2022-09-14T09:33:53.307Z,100
2022-09-14T09:49:09.279Z,95.5
2022-09-14T10:04:25.246Z,94
2022-09-14T10:19:41.209Z,96
2022-09-14T10:34:58.180Z,90
2022-09-14T10:50:14.174Z,89
2022-09-14T11:05:31.113Z,91
2022-09-14T11:20:48.100Z,86.5
2022-09-14T11:36:05.045Z,84.5
2022-09-14T11:51:21.048Z,66.5
2022-09-14T12:06:36.991Z,46.5
2022-09-14T12:21:52.978Z,45.5
2022-09-14T12:37:12.129Z,43.5
2022-09-14T12:52:25.907Z,41.5
2022-09-14T13:07:42.871Z,41.5
2022-09-14T13:22:59.848Z,42.5
2022-09-14T13:38:16.813Z,42
2022-09-14T13:53:32.779Z,40.5
2022-09-14T14:08:48.845Z,40.5
2022-09-14T14:24:13.119Z,41
2022-09-14T14:39:21.675Z,41
2022-09-14T14:54:38.656Z,41.5
2022-09-14T15:09:55.616Z,43
2022-09-14T15:25:29.984Z,43.5
2022-09-14T15:40:30.597Z,42
2022-09-14T15:55:46.496Z,44
2022-09-14T15:56:27.368Z,44
2022-09-14T16:11:03.493Z,43.5
2022-09-14T16:26:35.243Z,43.5
2022-09-14T16:41:33.429Z,44
2022-09-14T16:56:50.354Z,44.5
2022-09-14T17:12:07.357Z,44.5
2022-09-14T17:27:24.299Z,45.5
2022-09-14T17:42:40.295Z,46
2022-09-14T17:57:56.233Z,46.5
2022-09-14T18:13:12.230Z,47
2022-09-14T18:28:29.166Z,46.5
2022-09-14T18:43:46.176Z,46.5
2022-09-14T18:59:03.132Z,47
2022-09-14T19:14:20.097Z,46.5
2022-09-14T19:29:37.032Z,51.5
2022-09-14T19:44:53.037Z,53.5
2022-09-14T20:00:09.016Z,62.5
2022-09-14T20:15:24.946Z,67
2022-09-14T20:30:41.962Z,67.5
2022-09-14T20:45:58.908Z,61
2022-09-14T21:01:15.933Z,60
2022-09-14T21:16:31.817Z,57.5
2022-09-14T21:31:48.945Z,68.5
2022-09-14T21:47:04.764Z,85
2022-09-14T22:02:20.781Z,100
2022-09-14T22:17:36.704Z,100
2022-09-14T22:32:53.675Z,100
2022-09-14T22:48:10.640Z,100
2022-09-14T23:03:27.619Z,100
2022-09-14T23:18:43.583Z,100
2022-09-14T23:34:00.552Z,100
2022-09-14T23:49:16.526Z,100
